sensor_id;sensor_type;location;lat;lon;timestamp;temperature;humidity
67005;HTU21D;53920;51.094;5.902;2023-02-28T00:00:32;1.47;65.78
67005;HTU21D;53920;51.094;5.902;2023-02-28T00:02:58;1.47;65.62
67005;HTU21D;53920;51.094;5.902;2023-02-28T00:05:27;1.47;65.66
67005;HTU21D;53920;51.094;5.902;2023-02-28T00:07:54;1.48;65.76
67005;HTU21D;53920;51.094;5.902;2023-02-28T00:10:24;1.47;65.75
67005;HTU21D;53920;51.094;5.902;2023-02-28T00:12:52;1.45;65.78
67005;HTU21D;53920;51.094;5.902;2023-02-28T00:15:18;1.42;65.83
67005;HTU21D;53920;51.094;5.902;2023-02-28T00:17:44;1.41;65.72
67005;HTU21D;53920;51.094;5.902;2023-02-28T00:20:12;1.40;65.70
67005;HTU21D;53920;51.094;5.902;2023-02-28T00:22:40;1.40;65.88
67005;HTU21D;53920;51.094;5.902;2023-02-28T00:25:07;1.37;65.75
67005;HTU21D;53920;51.094;5.902;2023-02-28T00:27:35;1.36;65.92
67005;HTU21D;53920;51.094;5.902;2023-02-28T00:30:06;1.36;66.20
67005;HTU21D;53920;51.094;5.902;2023-02-28T00:32:32;1.35;66.22
67005;HTU21D;53920;51.094;5.902;2023-02-28T00:35:01;1.32;66.00
67005;HTU21D;53920;51.094;5.902;2023-02-28T00:37:27;1.31;66.08
67005;HTU21D;53920;51.094;5.902;2023-02-28T00:39:52;1.28;66.24
67005;HTU21D;53920;51.094;5.902;2023-02-28T00:42:18;1.26;66.19
67005;HTU21D;53920;51.094;5.902;2023-02-28T00:44:47;1.24;66.36
67005;HTU21D;53920;51.094;5.902;2023-02-28T00:47:13;1.23;66.46
67005;HTU21D;53920;51.094;5.902;2023-02-28T00:49:39;1.21;66.33
67005;HTU21D;53920;51.094;5.902;2023-02-28T00:52:05;1.19;66.45
67005;HTU21D;53920;51.094;5.902;2023-02-28T00:54:30;1.18;66.62
67005;HTU21D;53920;51.094;5.902;2023-02-28T00:56:56;1.18;66.71
67005;HTU21D;53920;51.094;5.902;2023-02-28T00:59:22;1.14;66.73
67005;HTU21D;53920;51.094;5.902;2023-02-28T01:01:48;1.12;66.75
67005;HTU21D;53920;51.094;5.902;2023-02-28T01:04:14;1.12;67.02
67005;HTU21D;53920;51.094;5.902;2023-02-28T01:06:40;1.11;67.07
67005;HTU21D;53920;51.094;5.902;2023-02-28T01:09:10;1.08;66.99
67005;HTU21D;53920;51.094;5.902;2023-02-28T01:11:37;1.08;66.73
67005;HTU21D;53920;51.094;5.902;2023-02-28T01:14:04;1.06;66.83
67005;HTU21D;53920;51.094;5.902;2023-02-28T01:16:31;1.04;67.16
67005;HTU21D;53920;51.094;5.902;2023-02-28T01:18:57;1.03;67.18
67005;HTU21D;53920;51.094;5.902;2023-02-28T01:21:23;1.03;67.23
67005;HTU21D;53920;51.094;5.902;2023-02-28T01:23:50;0.99;67.04
67005;HTU21D;53920;51.094;5.902;2023-02-28T01:26:21;0.97;66.96
67005;HTU21D;53920;51.094;5.902;2023-02-28T01:28:49;0.93;66.85
67005;HTU21D;53920;51.094;5.902;2023-02-28T01:31:17;0.89;67.24
67005;HTU21D;53920;51.094;5.902;2023-02-28T01:33:44;0.87;67.17
67005;HTU21D;53920;51.094;5.902;2023-02-28T01:36:13;0.80;66.90
67005;HTU21D;53920;51.094;5.902;2023-02-28T01:38:40;0.73;66.94
67005;HTU21D;53920;51.094;5.902;2023-02-28T01:41:08;0.67;67.07
67005;HTU21D;53920;51.094;5.902;2023-02-28T01:46:10;0.57;67.61
67005;HTU21D;53920;51.094;5.902;2023-02-28T01:48:42;0.54;67.99
67005;HTU21D;53920;51.094;5.902;2023-02-28T01:51:17;0.55;68.45
67005;HTU21D;53920;51.094;5.902;2023-02-28T01:53:53;0.59;68.54
67005;HTU21D;53920;51.094;5.902;2023-02-28T01:56:26;0.59;68.67
67005;HTU21D;53920;51.094;5.902;2023-02-28T01:58:54;0.61;68.56
67005;HTU21D;53920;51.094;5.902;2023-02-28T02:01:24;0.63;68.49
67005;HTU21D;53920;51.094;5.902;2023-02-28T02:03:58;0.63;68.42
67005;HTU21D;53920;51.094;5.902;2023-02-28T02:06:29;0.60;68.33
67005;HTU21D;53920;51.094;5.902;2023-02-28T02:08:56;0.59;68.43
67005;HTU21D;53920;51.094;5.902;2023-02-28T02:11:24;0.55;68.13
67005;HTU21D;53920;51.094;5.902;2023-02-28T02:17:12;0.48;68.11
67005;HTU21D;53920;51.094;5.902;2023-02-28T02:22:47;0.37;68.20
67005;HTU21D;53920;51.094;5.902;2023-02-28T02:28:02;0.28;68.39
67005;HTU21D;53920;51.094;5.902;2023-02-28T02:36:03;0.17;69.29
67005;HTU21D;53920;51.094;5.902;2023-02-28T02:38:48;0.17;69.69
67005;HTU21D;53920;51.094;5.902;2023-02-28T02:44:27;0.25;70.03
67005;HTU21D;53920;51.094;5.902;2023-02-28T02:47:09;0.25;70.10
67005;HTU21D;53920;51.094;5.902;2023-02-28T02:49:39;0.23;69.67
67005;HTU21D;53920;51.094;5.902;2023-02-28T02:52:12;0.19;69.27
67005;HTU21D;53920;51.094;5.902;2023-02-28T02:54:45;0.16;69.41
67005;HTU21D;53920;51.094;5.902;2023-02-28T02:57:23;0.14;69.86
67005;HTU21D;53920;51.094;5.902;2023-02-28T02:59:54;0.15;69.90
67005;HTU21D;53920;51.094;5.902;2023-02-28T03:02:22;0.17;70.22
67005;HTU21D;53920;51.094;5.902;2023-02-28T03:04:53;0.19;70.45
67005;HTU21D;53920;51.094;5.902;2023-02-28T03:07:21;0.20;70.51
67005;HTU21D;53920;51.094;5.902;2023-02-28T03:09:56;0.21;70.59
67005;HTU21D;53920;51.094;5.902;2023-02-28T03:12:49;0.24;70.63
67005;HTU21D;53920;51.094;5.902;2023-02-28T03:15:36;0.25;70.61
67005;HTU21D;53920;51.094;5.902;2023-02-28T03:18:25;0.28;70.56
67005;HTU21D;53920;51.094;5.902;2023-02-28T03:21:13;0.30;70.30
67005;HTU21D;53920;51.094;5.902;2023-02-28T03:24:19;0.30;70.23
67005;HTU21D;53920;51.094;5.902;2023-02-28T03:27:11;0.36;70.19
67005;HTU21D;53920;51.094;5.902;2023-02-28T03:29:47;0.49;69.86
67005;HTU21D;53920;51.094;5.902;2023-02-28T03:32:35;0.58;69.39
67005;HTU21D;53920;51.094;5.902;2023-02-28T03:35:11;0.58;69.36
67005;HTU21D;53920;51.094;5.902;2023-02-28T03:37:43;0.54;69.37
67005;HTU21D;53920;51.094;5.902;2023-02-28T03:40:17;0.50;69.56
67005;HTU21D;53920;51.094;5.902;2023-02-28T03:42:49;0.47;69.73
67005;HTU21D;53920;51.094;5.902;2023-02-28T03:45:26;0.44;69.61
67005;HTU21D;53920;51.094;5.902;2023-02-28T03:48:17;0.39;69.52
67005;HTU21D;53920;51.094;5.902;2023-02-28T03:50:51;0.35;69.61
67005;HTU21D;53920;51.094;5.902;2023-02-28T03:53:30;0.32;69.64
67005;HTU21D;53920;51.094;5.902;2023-02-28T03:59:04;0.25;69.68
67005;HTU21D;53920;51.094;5.902;2023-02-28T04:01:39;0.21;69.96
67005;HTU21D;53920;51.094;5.902;2023-02-28T04:04:12;0.18;70.07
67005;HTU21D;53920;51.094;5.902;2023-02-28T04:06:40;0.15;70.03
67005;HTU21D;53920;51.094;5.902;2023-02-28T04:09:09;0.12;70.03
67005;HTU21D;53920;51.094;5.902;2023-02-28T04:11:45;0.09;69.96
67005;HTU21D;53920;51.094;5.902;2023-02-28T04:14:13;0.07;69.94
67005;HTU21D;53920;51.094;5.902;2023-02-28T04:16:41;0.04;69.88
67005;HTU21D;53920;51.094;5.902;2023-02-28T04:19:09;0.01;70.14
67005;HTU21D;53920;51.094;5.902;2023-02-28T04:21:41;-0.01;70.49
67005;HTU21D;53920;51.094;5.902;2023-02-28T04:24:13;-0.02;70.68
67005;HTU21D;53920;51.094;5.902;2023-02-28T04:26:42;-0.03;70.48
67005;HTU21D;53920;51.094;5.902;2023-02-28T04:29:11;-0.02;70.43
67005;HTU21D;53920;51.094;5.902;2023-02-28T04:31:38;-0.03;70.39
67005;HTU21D;53920;51.094;5.902;2023-02-28T04:34:04;-0.07;70.46
67005;HTU21D;53920;51.094;5.902;2023-02-28T04:36:31;-0.07;70.68
67005;HTU21D;53920;51.094;5.902;2023-02-28T04:38:58;-0.07;70.77
67005;HTU21D;53920;51.094;5.902;2023-02-28T04:41:24;-0.08;70.92
67005;HTU21D;53920;51.094;5.902;2023-02-28T04:43:53;-0.07;70.78
67005;HTU21D;53920;51.094;5.902;2023-02-28T04:46:19;-0.09;70.87
67005;HTU21D;53920;51.094;5.902;2023-02-28T04:48:45;-0.09;71.00
67005;HTU21D;53920;51.094;5.902;2023-02-28T04:51:13;-0.10;71.02
67005;HTU21D;53920;51.094;5.902;2023-02-28T04:53:41;-0.09;70.96
67005;HTU21D;53920;51.094;5.902;2023-02-28T04:56:09;-0.10;70.77
67005;HTU21D;53920;51.094;5.902;2023-02-28T04:58:36;-0.12;70.59
67005;HTU21D;53920;51.094;5.902;2023-02-28T05:03:49;-0.17;70.87
67005;HTU21D;53920;51.094;5.902;2023-02-28T05:06:17;-0.19;70.93
67005;HTU21D;53920;51.094;5.902;2023-02-28T05:08:43;-0.20;70.82
67005;HTU21D;53920;51.094;5.902;2023-02-28T05:11:19;-0.24;70.70
67005;HTU21D;53920;51.094;5.902;2023-02-28T05:13:45;-0.27;70.86
67005;HTU21D;53920;51.094;5.902;2023-02-28T05:16:11;-0.27;70.90
67005;HTU21D;53920;51.094;5.902;2023-02-28T05:18:38;-0.27;71.13
67005;HTU21D;53920;51.094;5.902;2023-02-28T05:21:04;-0.28;71.02
67005;HTU21D;53920;51.094;5.902;2023-02-28T05:23:30;-0.27;70.91
67005;HTU21D;53920;51.094;5.902;2023-02-28T05:25:56;-0.29;70.94
67005;HTU21D;53920;51.094;5.902;2023-02-28T05:28:22;-0.29;70.91
67005;HTU21D;53920;51.094;5.902;2023-02-28T05:30:48;-0.28;70.81
67005;HTU21D;53920;51.094;5.902;2023-02-28T05:33:14;-0.29;70.83
67005;HTU21D;53920;51.094;5.902;2023-02-28T05:35:41;-0.29;70.78
67005;HTU21D;53920;51.094;5.902;2023-02-28T05:38:10;-0.25;70.81
67005;HTU21D;53920;51.094;5.902;2023-02-28T05:40:38;-0.26;70.67
67005;HTU21D;53920;51.094;5.902;2023-02-28T05:43:04;-0.24;70.42
67005;HTU21D;53920;51.094;5.902;2023-02-28T05:45:30;-0.25;70.53
67005;HTU21D;53920;51.094;5.902;2023-02-28T05:47:56;-0.24;70.45
67005;HTU21D;53920;51.094;5.902;2023-02-28T05:50:22;-0.23;70.48
67005;HTU21D;53920;51.094;5.902;2023-02-28T05:52:51;-0.22;70.42
67005;HTU21D;53920;51.094;5.902;2023-02-28T05:55:17;-0.22;70.21
67005;HTU21D;53920;51.094;5.902;2023-02-28T05:57:44;-0.24;70.16
67005;HTU21D;53920;51.094;5.902;2023-02-28T06:00:10;-0.24;70.35
67005;HTU21D;53920;51.094;5.902;2023-02-28T06:02:40;-0.26;70.34
67005;HTU21D;53920;51.094;5.902;2023-02-28T06:05:13;-0.28;70.13
67005;HTU21D;53920;51.094;5.902;2023-02-28T06:07:40;-0.31;70.26
67005;HTU21D;53920;51.094;5.902;2023-02-28T06:10:09;-0.30;70.07
67005;HTU21D;53920;51.094;5.902;2023-02-28T06:12:35;-0.32;70.01
67005;HTU21D;53920;51.094;5.902;2023-02-28T06:15:01;-0.34;70.13
67005;HTU21D;53920;51.094;5.902;2023-02-28T06:17:26;-0.32;69.76
67005;HTU21D;53920;51.094;5.902;2023-02-28T06:19:52;-0.32;69.65
67005;HTU21D;53920;51.094;5.902;2023-02-28T06:22:19;-0.37;69.55
67005;HTU21D;53920;51.094;5.902;2023-02-28T06:24:45;-0.37;69.46
67005;HTU21D;53920;51.094;5.902;2023-02-28T06:27:11;-0.36;69.49
67005;HTU21D;53920;51.094;5.902;2023-02-28T06:29:37;-0.37;69.28
67005;HTU21D;53920;51.094;5.902;2023-02-28T06:32:05;-0.34;69.30
67005;HTU21D;53920;51.094;5.902;2023-02-28T06:34:31;-0.32;69.36
67005;HTU21D;53920;51.094;5.902;2023-02-28T06:36:59;-0.29;69.26
67005;HTU21D;53920;51.094;5.902;2023-02-28T06:39:31;-0.27;69.12
67005;HTU21D;53920;51.094;5.902;2023-02-28T06:41:57;-0.27;68.85
67005;HTU21D;53920;51.094;5.902;2023-02-28T06:44:24;-0.23;68.71
67005;HTU21D;53920;51.094;5.902;2023-02-28T06:46:50;-0.20;68.46
67005;HTU21D;53920;51.094;5.902;2023-02-28T06:49:16;-0.20;68.46
67005;HTU21D;53920;51.094;5.902;2023-02-28T06:51:44;-0.15;68.34
67005;HTU21D;53920;51.094;5.902;2023-02-28T06:54:11;-0.13;68.15
67005;HTU21D;53920;51.094;5.902;2023-02-28T06:56:37;-0.11;67.88
67005;HTU21D;53920;51.094;5.902;2023-02-28T06:59:04;-0.08;67.72
67005;HTU21D;53920;51.094;5.902;2023-02-28T07:01:30;-0.07;67.75
67005;HTU21D;53920;51.094;5.902;2023-02-28T07:03:59;-0.06;67.68
67005;HTU21D;53920;51.094;5.902;2023-02-28T07:06:26;-0.01;67.75
67005;HTU21D;53920;51.094;5.902;2023-02-28T07:08:54;0.02;67.61
67005;HTU21D;53920;51.094;5.902;2023-02-28T07:11:21;0.06;67.78
67005;HTU21D;53920;51.094;5.902;2023-02-28T07:13:49;0.12;67.49
67005;HTU21D;53920;51.094;5.902;2023-02-28T07:16:16;0.14;67.36
67005;HTU21D;53920;51.094;5.902;2023-02-28T07:18:42;0.18;67.27
67005;HTU21D;53920;51.094;5.902;2023-02-28T07:21:09;0.23;67.14
67005;HTU21D;53920;51.094;5.902;2023-02-28T07:23:36;0.29;67.16
67005;HTU21D;53920;51.094;5.902;2023-02-28T07:26:08;0.35;66.97
67005;HTU21D;53920;51.094;5.902;2023-02-28T07:28:36;0.39;66.69
67005;HTU21D;53920;51.094;5.902;2023-02-28T07:31:07;0.46;66.85
67005;HTU21D;53920;51.094;5.902;2023-02-28T07:33:33;0.50;66.46
67005;HTU21D;53920;51.094;5.902;2023-02-28T07:36:01;0.55;66.27
67005;HTU21D;53920;51.094;5.902;2023-02-28T07:38:27;0.63;66.17
67005;HTU21D;53920;51.094;5.902;2023-02-28T07:40:53;0.69;66.17
67005;HTU21D;53920;51.094;5.902;2023-02-28T07:43:19;0.76;65.69
67005;HTU21D;53920;51.094;5.902;2023-02-28T07:45:45;0.82;65.53
67005;HTU21D;53920;51.094;5.902;2023-02-28T07:48:11;0.89;65.33
67005;HTU21D;53920;51.094;5.902;2023-02-28T07:50:36;0.95;65.15
67005;HTU21D;53920;51.094;5.902;2023-02-28T07:53:03;1.03;64.89
67005;HTU21D;53920;51.094;5.902;2023-02-28T07:55:29;1.12;64.47
67005;HTU21D;53920;51.094;5.902;2023-02-28T07:57:57;1.24;64.01
67005;HTU21D;53920;51.094;5.902;2023-02-28T08:00:23;1.35;63.73
67005;HTU21D;53920;51.094;5.902;2023-02-28T08:02:50;1.47;63.47
67005;HTU21D;53920;51.094;5.902;2023-02-28T08:05:16;1.58;63.21
67005;HTU21D;53920;51.094;5.902;2023-02-28T08:07:42;1.70;62.96
67005;HTU21D;53920;51.094;5.902;2023-02-28T08:10:08;1.83;62.57
67005;HTU21D;53920;51.094;5.902;2023-02-28T08:12:35;1.92;61.86
67005;HTU21D;53920;51.094;5.902;2023-02-28T08:15:01;2.03;61.61
67005;HTU21D;53920;51.094;5.902;2023-02-28T08:17:28;2.19;61.11
67005;HTU21D;53920;51.094;5.902;2023-02-28T08:19:54;2.36;60.46
67005;HTU21D;53920;51.094;5.902;2023-02-28T08:22:20;2.53;59.84
67005;HTU21D;53920;51.094;5.902;2023-02-28T08:24:46;2.72;59.46
67005;HTU21D;53920;51.094;5.902;2023-02-28T08:27:13;2.90;58.84
67005;HTU21D;53920;51.094;5.902;2023-02-28T08:29:39;3.14;58.13
67005;HTU21D;53920;51.094;5.902;2023-02-28T08:32:06;3.43;57.64
67005;HTU21D;53920;51.094;5.902;2023-02-28T08:34:32;4.00;55.90
67005;HTU21D;53920;51.094;5.902;2023-02-28T08:36:58;4.48;54.44
67005;HTU21D;53920;51.094;5.902;2023-02-28T08:39:25;5.27;52.17
67005;HTU21D;53920;51.094;5.902;2023-02-28T08:41:51;7.61;45.23
67005;HTU21D;53920;51.094;5.902;2023-02-28T08:44:16;10.01;38.85
67005;HTU21D;53920;51.094;5.902;2023-02-28T08:46:42;11.88;34.05
67005;HTU21D;53920;51.094;5.902;2023-02-28T08:49:10;12.96;30.90
67005;HTU21D;53920;51.094;5.902;2023-02-28T08:51:36;13.71;28.82
67005;HTU21D;53920;51.094;5.902;2023-02-28T08:54:02;13.84;28.14
67005;HTU21D;53920;51.094;5.902;2023-02-28T08:56:28;13.34;28.84
67005;HTU21D;53920;51.094;5.902;2023-02-28T08:58:56;12.85;29.75
67005;HTU21D;53920;51.094;5.902;2023-02-28T09:01:25;13.49;28.57
67005;HTU21D;53920;51.094;5.902;2023-02-28T09:03:53;14.67;26.36
67005;HTU21D;53920;51.094;5.902;2023-02-28T09:06:21;15.61;24.34
67005;HTU21D;53920;51.094;5.902;2023-02-28T09:08:48;16.31;22.96
67005;HTU21D;53920;51.094;5.902;2023-02-28T09:11:15;16.90;22.01
67005;HTU21D;53920;51.094;5.902;2023-02-28T09:13:41;17.25;20.74
67005;HTU21D;53920;51.094;5.902;2023-02-28T09:16:12;17.59;20.34
67005;HTU21D;53920;51.094;5.902;2023-02-28T09:18:39;18.23;19.34
67005;HTU21D;53920;51.094;5.902;2023-02-28T09:21:11;18.96;18.43
67005;HTU21D;53920;51.094;5.902;2023-02-28T09:23:41;19.31;17.54
67005;HTU21D;53920;51.094;5.902;2023-02-28T09:26:16;19.69;16.76
67005;HTU21D;53920;51.094;5.902;2023-02-28T09:28:42;19.12;16.87
67005;HTU21D;53920;51.094;5.902;2023-02-28T09:31:13;18.88;17.14
67005;HTU21D;53920;51.094;5.902;2023-02-28T09:33:39;19.21;16.81
67005;HTU21D;53920;51.094;5.902;2023-02-28T09:36:06;19.42;15.97
67005;HTU21D;53920;51.094;5.902;2023-02-28T09:38:32;19.30;15.71
67005;HTU21D;53920;51.094;5.902;2023-02-28T09:41:01;19.50;15.71
67005;HTU21D;53920;51.094;5.902;2023-02-28T09:43:38;19.01;15.61
67005;HTU21D;53920;51.094;5.902;2023-02-28T09:46:17;19.02;15.84
67005;HTU21D;53920;51.094;5.902;2023-02-28T09:48:47;19.01;15.72
67005;HTU21D;53920;51.094;5.902;2023-02-28T09:53:39;19.50;14.13
67005;HTU21D;53920;51.094;5.902;2023-02-28T09:56:39;20.07;13.73
67005;HTU21D;53920;51.094;5.902;2023-02-28T09:59:23;20.16;13.48
67005;HTU21D;53920;51.094;5.902;2023-02-28T10:01:57;20.31;12.88
67005;HTU21D;53920;51.094;5.902;2023-02-28T10:04:46;19.96;12.45
67005;HTU21D;53920;51.094;5.902;2023-02-28T10:10:49;19.84;12.65
67005;HTU21D;53920;51.094;5.902;2023-02-28T10:15:59;20.12;11.84
67005;HTU21D;53920;51.094;5.902;2023-02-28T10:18:46;19.77;12.30
67005;HTU21D;53920;51.094;5.902;2023-02-28T10:21:39;19.82;12.10
67005;HTU21D;53920;51.094;5.902;2023-02-28T10:26:47;19.14;12.89
67005;HTU21D;53920;51.094;5.902;2023-02-28T10:29:14;19.80;12.53
67005;HTU21D;53920;51.094;5.902;2023-02-28T10:31:40;20.06;11.79
67005;HTU21D;53920;51.094;5.902;2023-02-28T10:34:07;19.44;12.37
67005;HTU21D;53920;51.094;5.902;2023-02-28T10:36:38;19.59;12.55
67005;HTU21D;53920;51.094;5.902;2023-02-28T10:39:38;19.50;11.78
67005;HTU21D;53920;51.094;5.902;2023-02-28T10:42:22;19.66;11.80
67005;HTU21D;53920;51.094;5.902;2023-02-28T10:45:13;19.57;11.96
67005;HTU21D;53920;51.094;5.902;2023-02-28T10:50:44;19.88;11.40
67005;HTU21D;53920;51.094;5.902;2023-02-28T10:55:42;20.68;11.11
67005;HTU21D;53920;51.094;5.902;2023-02-28T10:58:23;20.29;10.88
67005;HTU21D;53920;51.094;5.902;2023-02-28T11:00:49;19.83;11.30
67005;HTU21D;53920;51.094;5.902;2023-02-28T11:03:32;19.86;11.36
67005;HTU21D;53920;51.094;5.902;2023-02-28T11:06:03;18.98;12.42
67005;HTU21D;53920;51.094;5.902;2023-02-28T11:08:30;17.78;13.84
67005;HTU21D;53920;51.094;5.902;2023-02-28T11:11:00;16.86;15.31
67005;HTU21D;53920;51.094;5.902;2023-02-28T11:13:32;16.94;15.36
67005;HTU21D;53920;51.094;5.902;2023-02-28T11:16:03;17.46;14.22
67005;HTU21D;53920;51.094;5.902;2023-02-28T11:18:53;18.44;13.18
67005;HTU21D;53920;51.094;5.902;2023-02-28T11:21:31;19.26;12.73
67005;HTU21D;53920;51.094;5.902;2023-02-28T11:24:02;18.72;12.44
67005;HTU21D;53920;51.094;5.902;2023-02-28T11:26:44;19.10;12.62
67005;HTU21D;53920;51.094;5.902;2023-02-28T11:29:24;19.35;12.17
67005;HTU21D;53920;51.094;5.902;2023-02-28T11:34:37;17.83;13.76
67005;HTU21D;53920;51.094;5.902;2023-02-28T11:37:08;19.15;12.32
67005;HTU21D;53920;51.094;5.902;2023-02-28T11:39:35;19.43;12.39
67005;HTU21D;53920;51.094;5.902;2023-02-28T11:42:14;19.67;12.29
67005;HTU21D;53920;51.094;5.902;2023-02-28T11:45:07;19.39;12.68
67005;HTU21D;53920;51.094;5.902;2023-02-28T11:53:17;20.87;11.49
67005;HTU21D;53920;51.094;5.902;2023-02-28T11:55:51;21.32;10.88
67005;HTU21D;53920;51.094;5.902;2023-02-28T11:58:23;20.86;11.12
67005;HTU21D;53920;51.094;5.902;2023-02-28T12:04:00;21.04;11.48
67005;HTU21D;53920;51.094;5.902;2023-02-28T12:07:00;20.00;11.91
67005;HTU21D;53920;51.094;5.902;2023-02-28T12:10:26;18.96;13.05
67005;HTU21D;53920;51.094;5.902;2023-02-28T12:18:16;19.71;12.76
67005;HTU21D;53920;51.094;5.902;2023-02-28T12:26:39;18.78;12.85
67005;HTU21D;53920;51.094;5.902;2023-02-28T12:29:19;18.81;13.74
67005;HTU21D;53920;51.094;5.902;2023-02-28T12:31:53;19.68;13.26
67005;HTU21D;53920;51.094;5.902;2023-02-28T12:34:28;20.85;12.38
67005;HTU21D;53920;51.094;5.902;2023-02-28T12:36:58;21.73;12.07
67005;HTU21D;53920;51.094;5.902;2023-02-28T12:39:31;21.77;11.29
67005;HTU21D;53920;51.094;5.902;2023-02-28T12:42:04;20.19;12.86
67005;HTU21D;53920;51.094;5.902;2023-02-28T12:44:49;18.56;14.43
67005;HTU21D;53920;51.094;5.902;2023-02-28T12:47:18;17.23;16.29
67005;HTU21D;53920;51.094;5.902;2023-02-28T12:49:57;16.36;17.48
67005;HTU21D;53920;51.094;5.902;2023-02-28T12:52:37;15.47;18.78
67005;HTU21D;53920;51.094;5.902;2023-02-28T12:55:23;14.33;19.92
67005;HTU21D;53920;51.094;5.902;2023-02-28T13:09:19;13.88;21.63
67005;HTU21D;53920;51.094;5.902;2023-02-28T13:11:49;13.70;22.02
67005;HTU21D;53920;51.094;5.902;2023-02-28T13:14:29;13.33;22.30
67005;HTU21D;53920;51.094;5.902;2023-02-28T13:19:39;15.28;20.24
67005;HTU21D;53920;51.094;5.902;2023-02-28T13:24:55;17.28;16.94
67005;HTU21D;53920;51.094;5.902;2023-02-28T13:27:39;18.11;16.15
67005;HTU21D;53920;51.094;5.902;2023-02-28T13:35:46;18.92;15.28
67005;HTU21D;53920;51.094;5.902;2023-02-28T13:38:41;19.18;15.26
67005;HTU21D;53920;51.094;5.902;2023-02-28T13:44:06;19.50;14.05
67005;HTU21D;53920;51.094;5.902;2023-02-28T13:46:35;19.01;14.90
67005;HTU21D;53920;51.094;5.902;2023-02-28T13:52:15;18.53;14.95
67005;HTU21D;53920;51.094;5.902;2023-02-28T14:05:38;18.55;15.11
67005;HTU21D;53920;51.094;5.902;2023-02-28T14:08:16;18.56;14.81
67005;HTU21D;53920;51.094;5.902;2023-02-28T14:10:49;17.96;14.98
67005;HTU21D;53920;51.094;5.902;2023-02-28T14:16:00;17.08;15.90
67005;HTU21D;53920;51.094;5.902;2023-02-28T14:18:31;16.56;16.74
67005;HTU21D;53920;51.094;5.902;2023-02-28T14:21:09;15.89;17.08
67005;HTU21D;53920;51.094;5.902;2023-02-28T14:26:47;14.13;19.65
67005;HTU21D;53920;51.094;5.902;2023-02-28T14:37:16;12.50;22.76
67005;HTU21D;53920;51.094;5.902;2023-02-28T14:39:44;12.15;22.85
67005;HTU21D;53920;51.094;5.902;2023-02-28T14:42:33;11.73;23.62
67005;HTU21D;53920;51.094;5.902;2023-02-28T14:45:01;11.40;24.46
67005;HTU21D;53920;51.094;5.902;2023-02-28T14:47:32;11.11;24.76
67005;HTU21D;53920;51.094;5.902;2023-02-28T14:50:02;10.84;25.17
67005;HTU21D;53920;51.094;5.902;2023-02-28T14:52:31;10.67;26.07
67005;HTU21D;53920;51.094;5.902;2023-02-28T14:55:05;10.46;26.36
67005;HTU21D;53920;51.094;5.902;2023-02-28T14:57:40;10.24;26.59
67005;HTU21D;53920;51.094;5.902;2023-02-28T15:00:46;10.13;27.24
67005;HTU21D;53920;51.094;5.902;2023-02-28T15:03:19;10.05;27.54
67005;HTU21D;53920;51.094;5.902;2023-02-28T15:05:57;9.82;27.82
67005;HTU21D;53920;51.094;5.902;2023-02-28T15:08:25;9.68;28.45
67005;HTU21D;53920;51.094;5.902;2023-02-28T15:11:05;9.57;28.71
67005;HTU21D;53920;51.094;5.902;2023-02-28T15:16:19;9.29;29.27
67005;HTU21D;53920;51.094;5.902;2023-02-28T15:18:50;9.14;29.31
67005;HTU21D;53920;51.094;5.902;2023-02-28T15:21:23;8.94;29.80
67005;HTU21D;53920;51.094;5.902;2023-02-28T15:26:28;8.68;30.91
67005;HTU21D;53920;51.094;5.902;2023-02-28T15:31:52;8.49;32.22
67005;HTU21D;53920;51.094;5.902;2023-02-28T15:34:45;8.33;31.93
67005;HTU21D;53920;51.094;5.902;2023-02-28T15:37:41;8.13;31.92
67005;HTU21D;53920;51.094;5.902;2023-02-28T15:40:31;8.04;32.83
67005;HTU21D;53920;51.094;5.902;2023-02-28T15:45:51;7.90;32.93
67005;HTU21D;53920;51.094;5.902;2023-02-28T15:51:27;7.84;33.66
67005;HTU21D;53920;51.094;5.902;2023-02-28T15:53:59;7.84;33.79
67005;HTU21D;53920;51.094;5.902;2023-02-28T15:56:32;7.79;33.57
67005;HTU21D;53920;51.094;5.902;2023-02-28T15:59:06;7.77;34.36
67005;HTU21D;53920;51.094;5.902;2023-02-28T16:01:37;7.72;34.39
67005;HTU21D;53920;51.094;5.902;2023-02-28T16:04:15;7.69;34.42
67005;HTU21D;53920;51.094;5.902;2023-02-28T16:06:44;7.63;34.66
67005;HTU21D;53920;51.094;5.902;2023-02-28T16:09:14;7.62;35.15
67005;HTU21D;53920;51.094;5.902;2023-02-28T16:11:47;7.53;35.24
67005;HTU21D;53920;51.094;5.902;2023-02-28T16:14:20;7.49;35.25
67005;HTU21D;53920;51.094;5.902;2023-02-28T16:16:51;7.39;36.01
67005;HTU21D;53920;51.094;5.902;2023-02-28T16:19:18;7.31;35.98
67005;HTU21D;53920;51.094;5.902;2023-02-28T16:21:44;7.29;35.92
67005;HTU21D;53920;51.094;5.902;2023-02-28T16:24:10;7.22;35.51
67005;HTU21D;53920;51.094;5.902;2023-02-28T16:26:42;7.09;36.08
67005;HTU21D;53920;51.094;5.902;2023-02-28T16:29:22;7.00;36.30
67005;HTU21D;53920;51.094;5.902;2023-02-28T16:31:49;6.95;36.85
67005;HTU21D;53920;51.094;5.902;2023-02-28T16:34:15;6.88;36.97
67005;HTU21D;53920;51.094;5.902;2023-02-28T16:36:41;6.83;37.06
67005;HTU21D;53920;51.094;5.902;2023-02-28T16:39:08;6.76;37.55
67005;HTU21D;53920;51.094;5.902;2023-02-28T16:41:34;6.73;37.91
67005;HTU21D;53920;51.094;5.902;2023-02-28T16:44:00;6.67;37.93
67005;HTU21D;53920;51.094;5.902;2023-02-28T16:46:36;6.69;38.20
67005;HTU21D;53920;51.094;5.902;2023-02-28T16:49:02;6.60;38.32
67005;HTU21D;53920;51.094;5.902;2023-02-28T16:51:28;6.53;38.56
67005;HTU21D;53920;51.094;5.902;2023-02-28T16:53:54;6.49;39.09
67005;HTU21D;53920;51.094;5.902;2023-02-28T16:56:24;6.43;39.44
67005;HTU21D;53920;51.094;5.902;2023-02-28T16:58:51;6.36;40.39
67005;HTU21D;53920;51.094;5.902;2023-02-28T17:01:18;6.28;40.64
67005;HTU21D;53920;51.094;5.902;2023-02-28T17:03:50;6.24;40.94
67005;HTU21D;53920;51.094;5.902;2023-02-28T17:06:22;6.14;41.35
67005;HTU21D;53920;51.094;5.902;2023-02-28T17:08:50;6.08;41.38
67005;HTU21D;53920;51.094;5.902;2023-02-28T17:11:16;6.01;41.77
67005;HTU21D;53920;51.094;5.902;2023-02-28T17:13:42;5.96;42.03
67005;HTU21D;53920;51.094;5.902;2023-02-28T17:16:28;5.90;42.31
67005;HTU21D;53920;51.094;5.902;2023-02-28T17:18:58;5.83;42.12
67005;HTU21D;53920;51.094;5.902;2023-02-28T17:21:26;5.78;42.72
67005;HTU21D;53920;51.094;5.902;2023-02-28T17:23:52;5.72;42.87
67005;HTU21D;53920;51.094;5.902;2023-02-28T17:26:20;5.64;43.37
67005;HTU21D;53920;51.094;5.902;2023-02-28T17:28:47;5.57;43.41
67005;HTU21D;53920;51.094;5.902;2023-02-28T17:31:13;5.50;43.90
67005;HTU21D;53920;51.094;5.902;2023-02-28T17:33:39;5.45;44.38
67005;HTU21D;53920;51.094;5.902;2023-02-28T17:36:06;5.36;44.61
67005;HTU21D;53920;51.094;5.902;2023-02-28T17:38:32;5.30;45.07
67005;HTU21D;53920;51.094;5.902;2023-02-28T17:40:59;5.23;45.08
67005;HTU21D;53920;51.094;5.902;2023-02-28T17:43:26;5.17;45.40
67005;HTU21D;53920;51.094;5.902;2023-02-28T17:45:52;5.11;45.97
67005;HTU21D;53920;51.094;5.902;2023-02-28T17:48:18;5.08;45.87
67005;HTU21D;53920;51.094;5.902;2023-02-28T17:50:44;5.06;45.88
67005;HTU21D;53920;51.094;5.902;2023-02-28T17:53:11;5.02;45.93
67005;HTU21D;53920;51.094;5.902;2023-02-28T17:55:39;5.01;46.00
67005;HTU21D;53920;51.094;5.902;2023-02-28T17:58:05;4.96;46.02
67005;HTU21D;53920;51.094;5.902;2023-02-28T18:00:32;4.90;46.54